sensor_id;sensor_type;location;lat;lon;timestamp;pressure;altitude;pressure_sealevel;temperature;humidity
30873;BME280;17579;42.690;2.586;2022-09-03T00:02:37;96924.41;;;24.60;59.77
30873;BME280;17579;42.690;2.586;2022-09-03T00:08:16;96930.78;;;24.42;60.16
30873;BME280;17579;42.690;2.586;2022-09-03T00:11:17;96933.97;;;24.38;60.35
30873;BME280;17579;42.690;2.586;2022-09-03T00:13:52;96926.03;;;24.49;61.04
30873;BME280;17579;42.690;2.586;2022-09-03T00:16:22;96923.44;;;24.54;60.95
30873;BME280;17579;42.690;2.586;2022-09-03T00:18:51;96925.91;;;24.55;60.86
30873;BME280;17579;42.690;2.586;2022-09-03T00:21:37;96912.53;;;24.49;60.79
30873;BME280;17579;42.690;2.586;2022-09-03T00:24:07;96919.09;;;24.53;60.87
30873;BME280;17579;42.690;2.586;2022-09-03T00:26:35;96913.69;;;24.53;61.10
30873;BME280;17579;42.690;2.586;2022-09-03T00:29:16;96922.28;;;24.50;60.85
30873;BME280;17579;42.690;2.586;2022-09-03T00:31:46;96912.03;;;24.52;60.31
30873;BME280;17579;42.690;2.586;2022-09-03T00:36:53;96919.72;;;24.43;60.33
30873;BME280;17579;42.690;2.586;2022-09-03T00:39:22;96914.44;;;24.36;59.86
30873;BME280;17579;42.690;2.586;2022-09-03T00:42:08;96916.16;;;24.26;59.86
30873;BME280;17579;42.690;2.586;2022-09-03T00:44:53;96907.69;;;24.22;59.67
30873;BME280;17579;42.690;2.586;2022-09-03T00:53:25;96917.06;;;24.02;60.29
30873;BME280;17579;42.690;2.586;2022-09-03T00:59:03;96906.88;;;23.93;59.66
30873;BME280;17579;42.690;2.586;2022-09-03T01:02:00;96904.19;;;23.81;59.56
30873;BME280;17579;42.690;2.586;2022-09-03T01:04:45;96901.59;;;23.74;59.71
30873;BME280;17579;42.690;2.586;2022-09-03T01:10:29;96908.19;;;23.66;59.57
30873;BME280;17579;42.690;2.586;2022-09-03T01:13:10;96907.75;;;23.58;59.35
30873;BME280;17579;42.690;2.586;2022-09-03T01:18:49;96900.72;;;23.45;59.95
30873;BME280;17579;42.690;2.586;2022-09-03T01:24:41;96888.16;;;23.50;59.82
30873;BME280;17579;42.690;2.586;2022-09-03T01:30:10;96886.50;;;23.49;59.45
30873;BME280;17579;42.690;2.586;2022-09-03T01:33:10;96891.09;;;23.49;59.34
30873;BME280;17579;42.690;2.586;2022-09-03T01:36:01;96892.94;;;23.48;59.13
30873;BME280;17579;42.690;2.586;2022-09-03T01:47:57;96914.31;;;23.50;58.04
30873;BME280;17579;42.690;2.586;2022-09-03T01:50:54;96915.75;;;23.29;57.58
30873;BME280;17579;42.690;2.586;2022-09-03T01:56:42;96912.44;;;23.15;57.93
30873;BME280;17579;42.690;2.586;2022-09-03T01:59:22;96914.91;;;23.16;58.08
30873;BME280;17579;42.690;2.586;2022-09-03T02:01:57;96912.56;;;23.20;57.85
30873;BME280;17579;42.690;2.586;2022-09-03T02:04:25;96919.13;;;23.24;57.53
30873;BME280;17579;42.690;2.586;2022-09-03T02:06:52;96920.53;;;23.27;57.32
30873;BME280;17579;42.690;2.586;2022-09-03T02:09:19;96916.31;;;23.31;57.30
30873;BME280;17579;42.690;2.586;2022-09-03T02:11:50;96917.13;;;23.31;57.33
30873;BME280;17579;42.690;2.586;2022-09-03T02:14:17;96911.06;;;23.36;56.69
30873;BME280;17579;42.690;2.586;2022-09-03T02:16:43;96914.56;;;23.37;56.54
30873;BME280;17579;42.690;2.586;2022-09-03T02:19:12;96926.78;;;23.39;56.51
30873;BME280;17579;42.690;2.586;2022-09-03T02:21:50;96922.19;;;23.40;56.66
30873;BME280;17579;42.690;2.586;2022-09-03T02:24:16;96920.66;;;23.44;55.91
30873;BME280;17579;42.690;2.586;2022-09-03T02:26:43;96927.47;;;23.46;56.31
30873;BME280;17579;42.690;2.586;2022-09-03T02:29:10;96923.94;;;23.46;55.89
30873;BME280;17579;42.690;2.586;2022-09-03T02:31:36;96915.59;;;23.47;55.92
30873;BME280;17579;42.690;2.586;2022-09-03T02:34:02;96911.03;;;23.48;55.32
30873;BME280;17579;42.690;2.586;2022-09-03T02:36:31;96914.22;;;23.45;55.55
30873;BME280;17579;42.690;2.586;2022-09-03T02:38:58;96904.47;;;23.44;55.65
30873;BME280;17579;42.690;2.586;2022-09-03T02:41:23;96901.16;;;23.42;55.29
30873;BME280;17579;42.690;2.586;2022-09-03T02:46:53;96902.81;;;23.43;55.88
30873;BME280;17579;42.690;2.586;2022-09-03T02:49:21;96898.03;;;23.45;55.48
30873;BME280;17579;42.690;2.586;2022-09-03T02:51:46;96898.47;;;23.42;55.77
30873;BME280;17579;42.690;2.586;2022-09-03T02:54:12;96897.41;;;23.43;56.03
30873;BME280;17579;42.690;2.586;2022-09-03T02:56:38;96893.06;;;23.42;56.27
30873;BME280;17579;42.690;2.586;2022-09-03T02:59:06;96886.28;;;23.39;55.98
30873;BME280;17579;42.690;2.586;2022-09-03T03:01:33;96885.69;;;23.37;55.90
30873;BME280;17579;42.690;2.586;2022-09-03T03:03:59;96888.38;;;23.37;56.42
30873;BME280;17579;42.690;2.586;2022-09-03T03:06:25;96878.66;;;23.36;56.25
30873;BME280;17579;42.690;2.586;2022-09-03T03:08:51;96882.66;;;23.33;56.63
30873;BME280;17579;42.690;2.586;2022-09-03T03:11:17;96880.66;;;23.29;56.50
30873;BME280;17579;42.690;2.586;2022-09-03T03:13:44;96878.88;;;23.23;56.95
30873;BME280;17579;42.690;2.586;2022-09-03T03:16:11;96876.91;;;23.18;56.84
30873;BME280;17579;42.690;2.586;2022-09-03T03:18:37;96874.31;;;23.11;57.42
30873;BME280;17579;42.690;2.586;2022-09-03T03:21:09;96880.38;;;23.07;57.21
30873;BME280;17579;42.690;2.586;2022-09-03T03:23:35;96883.44;;;23.10;57.32
30873;BME280;17579;42.690;2.586;2022-09-03T03:26:03;96886.38;;;23.09;57.31
30873;BME280;17579;42.690;2.586;2022-09-03T03:28:29;96883.91;;;23.07;57.24
30873;BME280;17579;42.690;2.586;2022-09-03T03:31:06;96882.28;;;23.06;57.91
30873;BME280;17579;42.690;2.586;2022-09-03T03:33:32;96876.03;;;23.06;57.72
30873;BME280;17579;42.690;2.586;2022-09-03T03:36:03;96869.72;;;23.00;57.50
30873;BME280;17579;42.690;2.586;2022-09-03T03:38:28;96865.97;;;23.01;57.50
30873;BME280;17579;42.690;2.586;2022-09-03T03:40:54;96863.25;;;23.01;58.11
30873;BME280;17579;42.690;2.586;2022-09-03T03:43:19;96863.03;;;23.02;57.84
30873;BME280;17579;42.690;2.586;2022-09-03T03:45:57;96875.09;;;23.00;57.82
30873;BME280;17579;42.690;2.586;2022-09-03T03:48:24;96876.88;;;23.06;58.05
30873;BME280;17579;42.690;2.586;2022-09-03T03:50:49;96879.09;;;23.09;57.91
30873;BME280;17579;42.690;2.586;2022-09-03T03:53:15;96886.59;;;23.07;57.79
30873;BME280;17579;42.690;2.586;2022-09-03T03:55:41;96882.75;;;23.03;57.85
30873;BME280;17579;42.690;2.586;2022-09-03T03:58:06;96888.00;;;22.98;58.17
30873;BME280;17579;42.690;2.586;2022-09-03T04:00:32;96893.28;;;22.93;58.14
30873;BME280;17579;42.690;2.586;2022-09-03T04:03:00;96896.09;;;22.86;57.98
30873;BME280;17579;42.690;2.586;2022-09-03T04:05:26;96905.22;;;22.85;58.09
30873;BME280;17579;42.690;2.586;2022-09-03T04:07:51;96900.31;;;22.82;58.12
30873;BME280;17579;42.690;2.586;2022-09-03T04:10:17;96908.25;;;22.77;58.22
30873;BME280;17579;42.690;2.586;2022-09-03T04:12:43;96904.16;;;22.74;58.61
30873;BME280;17579;42.690;2.586;2022-09-03T04:15:08;96899.59;;;22.75;58.60
30873;BME280;17579;42.690;2.586;2022-09-03T04:17:34;96901.69;;;22.73;58.21
30873;BME280;17579;42.690;2.586;2022-09-03T04:20:00;96903.00;;;22.70;58.66
30873;BME280;17579;42.690;2.586;2022-09-03T04:22:27;96897.00;;;22.68;58.50
30873;BME280;17579;42.690;2.586;2022-09-03T04:24:53;96887.94;;;22.62;58.65
30873;BME280;17579;42.690;2.586;2022-09-03T04:27:19;96895.22;;;22.62;59.01
30873;BME280;17579;42.690;2.586;2022-09-03T04:29:45;96895.22;;;22.62;58.48
30873;BME280;17579;42.690;2.586;2022-09-03T04:32:11;96906.59;;;22.64;58.46
30873;BME280;17579;42.690;2.586;2022-09-03T04:34:48;96912.34;;;22.67;58.59
30873;BME280;17579;42.690;2.586;2022-09-03T04:37:13;96907.06;;;22.73;58.68
30873;BME280;17579;42.690;2.586;2022-09-03T04:39:40;96893.16;;;22.76;58.76
30873;BME280;17579;42.690;2.586;2022-09-03T04:42:06;96884.84;;;22.77;58.51
30873;BME280;17579;42.690;2.586;2022-09-03T04:44:31;96899.44;;;22.70;58.55
30873;BME280;17579;42.690;2.586;2022-09-03T04:46:57;96896.88;;;22.63;58.90
30873;BME280;17579;42.690;2.586;2022-09-03T04:49:22;96905.44;;;22.60;59.09
30873;BME280;17579;42.690;2.586;2022-09-03T04:51:49;96911.88;;;22.59;59.17
30873;BME280;17579;42.690;2.586;2022-09-03T04:54:14;96919.94;;;22.59;59.11
30873;BME280;17579;42.690;2.586;2022-09-03T04:56:40;96925.34;;;22.59;59.14
30873;BME280;17579;42.690;2.586;2022-09-03T04:59:08;96919.56;;;22.55;59.16
30873;BME280;17579;42.690;2.586;2022-09-03T05:01:36;96909.88;;;22.54;59.21
30873;BME280;17579;42.690;2.586;2022-09-03T05:04:02;96909.63;;;22.56;58.98
30873;BME280;17579;42.690;2.586;2022-09-03T05:06:29;96900.25;;;22.58;59.08
30873;BME280;17579;42.690;2.586;2022-09-03T05:08:56;96899.56;;;22.63;59.18
30873;BME280;17579;42.690;2.586;2022-09-03T05:11:23;96920.19;;;22.57;59.09
30873;BME280;17579;42.690;2.586;2022-09-03T05:13:51;96925.81;;;22.56;58.98
30873;BME280;17579;42.690;2.586;2022-09-03T05:16:18;96922.03;;;22.57;59.57
30873;BME280;17579;42.690;2.586;2022-09-03T05:18:44;96927.19;;;22.58;59.06
30873;BME280;17579;42.690;2.586;2022-09-03T05:21:13;96933.91;;;22.56;59.45
30873;BME280;17579;42.690;2.586;2022-09-03T05:23:42;96922.03;;;22.57;59.74
30873;BME280;17579;42.690;2.586;2022-09-03T05:26:10;96925.34;;;22.59;59.31
30873;BME280;17579;42.690;2.586;2022-09-03T05:28:38;96928.03;;;22.59;59.37
30873;BME280;17579;42.690;2.586;2022-09-03T05:31:06;96945.25;;;22.58;59.73
30873;BME280;17579;42.690;2.586;2022-09-03T05:33:40;96943.38;;;22.58;59.46
30873;BME280;17579;42.690;2.586;2022-09-03T05:36:12;96955.94;;;22.64;59.73
30873;BME280;17579;42.690;2.586;2022-09-03T05:38:38;96953.38;;;22.70;59.58
30873;BME280;17579;42.690;2.586;2022-09-03T05:41:07;96944.47;;;22.69;59.64
30873;BME280;17579;42.690;2.586;2022-09-03T05:43:33;96933.44;;;22.71;59.37
30873;BME280;17579;42.690;2.586;2022-09-03T05:46:01;96927.25;;;22.70;59.49
30873;BME280;17579;42.690;2.586;2022-09-03T05:48:28;96909.88;;;22.66;59.39
30873;BME280;17579;42.690;2.586;2022-09-03T05:51:05;96906.94;;;22.56;59.39
30873;BME280;17579;42.690;2.586;2022-09-03T05:53:34;96899.75;;;22.49;60.00
30873;BME280;17579;42.690;2.586;2022-09-03T05:56:01;96908.06;;;22.48;60.21
30873;BME280;17579;42.690;2.586;2022-09-03T05:58:31;96916.75;;;22.50;60.23
30873;BME280;17579;42.690;2.586;2022-09-03T06:00:57;96907.16;;;22.54;59.80
30873;BME280;17579;42.690;2.586;2022-09-03T06:03:23;96906.31;;;22.54;59.81
30873;BME280;17579;42.690;2.586;2022-09-03T06:05:52;96907.16;;;22.54;60.25
30873;BME280;17579;42.690;2.586;2022-09-03T06:08:20;96909.63;;;22.56;59.95
30873;BME280;17579;42.690;2.586;2022-09-03T06:10:46;96916.06;;;22.55;59.79
30873;BME280;17579;42.690;2.586;2022-09-03T06:13:12;96919.81;;;22.54;59.61
30873;BME280;17579;42.690;2.586;2022-09-03T06:15:38;96914.06;;;22.50;59.43
30873;BME280;17579;42.690;2.586;2022-09-03T06:18:04;96921.31;;;22.49;59.81
30873;BME280;17579;42.690;2.586;2022-09-03T06:20:30;96925.88;;;22.49;59.48
30873;BME280;17579;42.690;2.586;2022-09-03T06:22:57;96936.22;;;22.52;59.47
30873;BME280;17579;42.690;2.586;2022-09-03T06:25:23;96934.31;;;22.53;59.74
30873;BME280;17579;42.690;2.586;2022-09-03T06:27:49;96940.91;;;22.57;59.88
30873;BME280;17579;42.690;2.586;2022-09-03T06:30:16;96944.22;;;22.59;59.88
30873;BME280;17579;42.690;2.586;2022-09-03T06:32:44;96942.69;;;22.63;59.77
30873;BME280;17579;42.690;2.586;2022-09-03T06:35:10;96962.47;;;22.57;59.52
30873;BME280;17579;42.690;2.586;2022-09-03T06:37:40;96964.63;;;22.36;59.80
30873;BME280;17579;42.690;2.586;2022-09-03T06:40:06;96968.59;;;22.34;60.11
30873;BME280;17579;42.690;2.586;2022-09-03T06:42:33;96969.78;;;22.38;60.47
30873;BME280;17579;42.690;2.586;2022-09-03T06:44:59;96969.69;;;22.44;60.02
30873;BME280;17579;42.690;2.586;2022-09-03T06:47:24;96965.63;;;22.54;60.37
30873;BME280;17579;42.690;2.586;2022-09-03T06:49:50;96960.63;;;22.57;59.81
30873;BME280;17579;42.690;2.586;2022-09-03T06:52:16;96949.13;;;22.62;59.87
30873;BME280;17579;42.690;2.586;2022-09-03T06:54:42;96957.13;;;22.69;60.46
30873;BME280;17579;42.690;2.586;2022-09-03T06:57:07;96965.09;;;22.75;60.65
30873;BME280;17579;42.690;2.586;2022-09-03T06:59:33;96958.81;;;22.81;60.25
30873;BME280;17579;42.690;2.586;2022-09-03T07:01:58;96954.56;;;22.86;59.59
30873;BME280;17579;42.690;2.586;2022-09-03T07:04:25;96933.25;;;22.84;59.59
30873;BME280;17579;42.690;2.586;2022-09-03T07:06:51;96927.75;;;22.79;59.86
30873;BME280;17579;42.690;2.586;2022-09-03T07:09:17;96938.53;;;22.79;60.16
30873;BME280;17579;42.690;2.586;2022-09-03T07:11:43;96954.22;;;22.82;59.79
30873;BME280;17579;42.690;2.586;2022-09-03T07:14:13;96948.13;;;22.87;59.99
30873;BME280;17579;42.690;2.586;2022-09-03T07:16:39;96963.19;;;22.94;59.92
30873;BME280;17579;42.690;2.586;2022-09-03T07:19:06;96962.00;;;23.02;60.20
30873;BME280;17579;42.690;2.586;2022-09-03T07:21:35;96961.31;;;23.07;60.36
30873;BME280;17579;42.690;2.586;2022-09-03T07:24:01;96965.22;;;23.11;60.29
30873;BME280;17579;42.690;2.586;2022-09-03T07:26:30;96960.19;;;23.14;60.06
30873;BME280;17579;42.690;2.586;2022-09-03T07:28:57;96953.31;;;23.00;60.05
30873;BME280;17579;42.690;2.586;2022-09-03T07:31:29;96955.03;;;22.82;59.89
30873;BME280;17579;42.690;2.586;2022-09-03T07:34:01;96960.66;;;22.69;59.89
30873;BME280;17579;42.690;2.586;2022-09-03T07:36:35;96947.41;;;22.67;60.15
30873;BME280;17579;42.690;2.586;2022-09-03T07:39:03;96942.97;;;22.73;60.56
30873;BME280;17579;42.690;2.586;2022-09-03T07:41:29;96954.31;;;22.75;60.76
30873;BME280;17579;42.690;2.586;2022-09-03T07:43:58;96958.66;;;22.76;60.51
30873;BME280;17579;42.690;2.586;2022-09-03T07:46:26;96951.16;;;22.78;60.61
30873;BME280;17579;42.690;2.586;2022-09-03T07:48:53;96952.72;;;22.86;60.87
30873;BME280;17579;42.690;2.586;2022-09-03T07:51:21;96954.00;;;22.95;60.55
30873;BME280;17579;42.690;2.586;2022-09-03T07:53:52;96952.88;;;23.03;60.52
30873;BME280;17579;42.690;2.586;2022-09-03T07:56:18;96953.81;;;23.09;60.70
30873;BME280;17579;42.690;2.586;2022-09-03T07:58:44;96967.88;;;22.99;60.12
30873;BME280;17579;42.690;2.586;2022-09-03T08:01:14;96975.00;;;22.81;60.37
30873;BME280;17579;42.690;2.586;2022-09-03T08:03:45;96974.81;;;22.64;60.95
30873;BME280;17579;42.690;2.586;2022-09-03T08:06:11;96980.91;;;22.60;61.21
30873;BME280;17579;42.690;2.586;2022-09-03T08:08:37;96980.56;;;22.68;61.50
30873;BME280;17579;42.690;2.586;2022-09-03T08:11:07;96986.56;;;22.70;61.09
30873;BME280;17579;42.690;2.586;2022-09-03T08:13:40;96982.53;;;22.61;60.92
30873;BME280;17579;42.690;2.586;2022-09-03T08:16:08;96991.69;;;22.60;61.19
30873;BME280;17579;42.690;2.586;2022-09-03T08:18:34;96998.94;;;22.59;60.84
30873;BME280;17579;42.690;2.586;2022-09-03T08:21:05;96996.69;;;22.56;61.05
30873;BME280;17579;42.690;2.586;2022-09-03T08:23:36;96992.03;;;22.63;61.48
30873;BME280;17579;42.690;2.586;2022-09-03T08:26:02;96982.50;;;22.91;60.95
30873;BME280;17579;42.690;2.586;2022-09-03T08:28:28;96976.72;;;23.30;60.79
30873;BME280;17579;42.690;2.586;2022-09-03T08:30:54;96979.47;;;23.53;59.72
30873;BME280;17579;42.690;2.586;2022-09-03T08:33:20;96980.25;;;23.66;59.22
30873;BME280;17579;42.690;2.586;2022-09-03T08:36:25;96990.38;;;23.70;59.46
30873;BME280;17579;42.690;2.586;2022-09-03T08:38:53;96984.72;;;23.96;58.69
30873;BME280;17579;42.690;2.586;2022-09-03T08:44:29;96984.69;;;24.19;57.98
30873;BME280;17579;42.690;2.586;2022-09-03T08:50:07;96986.59;;;24.60;57.58
30873;BME280;17579;42.690;2.586;2022-09-03T08:52:58;96991.09;;;24.71;56.66
30873;BME280;17579;42.690;2.586;2022-09-03T08:58:25;96986.81;;;24.87;55.79
30873;BME280;17579;42.690;2.586;2022-09-03T09:04:19;96985.19;;;25.20;55.23
30873;BME280;17579;42.690;2.586;2022-09-03T09:06:57;96968.53;;;25.28;55.12
30873;BME280;17579;42.690;2.586;2022-09-03T09:09:49;96969.81;;;25.37;54.59
30873;BME280;17579;42.690;2.586;2022-09-03T09:12:34;96971.75;;;25.59;53.91
30873;BME280;17579;42.690;2.586;2022-09-03T09:15:25;96969.69;;;25.66;53.72
30873;BME280;17579;42.690;2.586;2022-09-03T09:21:07;96963.94;;;26.24;53.99
30873;BME280;17579;42.690;2.586;2022-09-03T09:23:47;96958.50;;;26.46;52.66
30873;BME280;17579;42.690;2.586;2022-09-03T09:26:16;96959.34;;;26.47;52.29
30873;BME280;17579;42.690;2.586;2022-09-03T09:28:45;96956.72;;;26.57;52.29
30873;BME280;17579;42.690;2.586;2022-09-03T09:31:14;96952.66;;;26.82;51.93
30873;BME280;17579;42.690;2.586;2022-09-03T09:33:41;96949.34;;;27.07;51.36
30873;BME280;17579;42.690;2.586;2022-09-03T09:36:12;96944.88;;;27.28;51.65
30873;BME280;17579;42.690;2.586;2022-09-03T09:38:40;96948.88;;;27.53;50.27
30873;BME280;17579;42.690;2.586;2022-09-03T09:41:20;96938.38;;;27.61;50.39
30873;BME280;17579;42.690;2.586;2022-09-03T09:43:59;96936.78;;;27.71;50.36
30873;BME280;17579;42.690;2.586;2022-09-03T09:46:32;96934.00;;;27.60;49.27
30873;BME280;17579;42.690;2.586;2022-09-03T09:49:00;96939.28;;;27.35;48.91
30873;BME280;17579;42.690;2.586;2022-09-03T09:51:27;96933.34;;;27.10;48.74
30873;BME280;17579;42.690;2.586;2022-09-03T09:54:12;96931.59;;;26.94;50.10
30873;BME280;17579;42.690;2.586;2022-09-03T09:56:41;96930.31;;;27.02;48.93
30873;BME280;17579;42.690;2.586;2022-09-03T09:59:08;96934.34;;;26.99;48.64
30873;BME280;17579;42.690;2.586;2022-09-03T10:01:43;96921.22;;;26.86;49.73
30873;BME280;17579;42.690;2.586;2022-09-03T10:04:21;96917.97;;;26.89;50.03
30873;BME280;17579;42.690;2.586;2022-09-03T10:06:53;96916.66;;;26.91;49.51
30873;BME280;17579;42.690;2.586;2022-09-03T10:09:25;96925.09;;;26.95;49.65
30873;BME280;17579;42.690;2.586;2022-09-03T10:12:18;96931.72;;;27.09;49.86
30873;BME280;17579;42.690;2.586;2022-09-03T10:15:11;96929.06;;;27.14;49.41
30873;BME280;17579;42.690;2.586;2022-09-03T10:18:02;96926.94;;;26.89;48.97
30873;BME280;17579;42.690;2.586;2022-09-03T10:23:24;96920.81;;;26.72;49.58
30873;BME280;17579;42.690;2.586;2022-09-03T10:26:06;96928.94;;;26.72;49.71
30873;BME280;17579;42.690;2.586;2022-09-03T10:28:35;96923.31;;;26.78;49.16
30873;BME280;17579;42.690;2.586;2022-09-03T10:40:16;96915.44;;;27.09;48.99
30873;BME280;17579;42.690;2.586;2022-09-03T10:45:57;96910.84;;;27.53;48.03
30873;BME280;17579;42.690;2.586;2022-09-03T10:51:26;96911.22;;;27.66;47.75
30873;BME280;17579;42.690;2.586;2022-09-03T10:59:58;96909.84;;;27.64;46.22
30873;BME280;17579;42.690;2.586;2022-09-03T11:05:27;96907.09;;;27.59;46.68
30873;BME280;17579;42.690;2.586;2022-09-03T11:10:47;96897.53;;;27.46;45.74
30873;BME280;17579;42.690;2.586;2022-09-03T11:13:29;96905.00;;;27.28;46.11
30873;BME280;17579;42.690;2.586;2022-09-03T11:16:21;96904.41;;;27.21;46.84
30873;BME280;17579;42.690;2.586;2022-09-03T11:18:56;96907.50;;;27.35;45.98
30873;BME280;17579;42.690;2.586;2022-09-03T11:21:25;96895.28;;;27.38;45.08
30873;BME280;17579;42.690;2.586;2022-09-03T11:24:05;96899.84;;;27.32;45.26
30873;BME280;17579;42.690;2.586;2022-09-03T11:26:34;96894.41;;;27.32;45.21
30873;BME280;17579;42.690;2.586;2022-09-03T11:29:15;96899.00;;;27.26;45.63
30873;BME280;17579;42.690;2.586;2022-09-03T11:32:06;96900.44;;;27.34;46.23
30873;BME280;17579;42.690;2.586;2022-09-03T11:34:49;96896.72;;;27.51;46.23
30873;BME280;17579;42.690;2.586;2022-09-03T11:37:24;96895.97;;;27.60;45.50
30873;BME280;17579;42.690;2.586;2022-09-03T11:40:04;96895.66;;;27.57;45.22
30873;BME280;17579;42.690;2.586;2022-09-03T11:42:38;96886.41;;;27.47;44.40
30873;BME280;17579;42.690;2.586;2022-09-03T11:48:17;96887.72;;;27.40;45.25
30873;BME280;17579;42.690;2.586;2022-09-03T11:50:52;96874.16;;;27.45;45.21
30873;BME280;17579;42.690;2.586;2022-09-03T11:53:24;96879.03;;;27.43;44.92
30873;BME280;17579;42.690;2.586;2022-09-03T11:58:45;96876.13;;;27.55;44.16
30873;BME280;17579;42.690;2.586;2022-09-03T12:01:14;96877.97;;;27.49;44.87
30873;BME280;17579;42.690;2.586;2022-09-03T12:03:58;96883.47;;;27.54;45.75
30873;BME280;17579;42.690;2.586;2022-09-03T12:09:52;96886.41;;;27.53;44.54
30873;BME280;17579;42.690;2.586;2022-09-03T12:18:28;96892.56;;;27.91;44.50
30873;BME280;17579;42.690;2.586;2022-09-03T12:21:05;96887.69;;;27.93;44.88
30873;BME280;17579;42.690;2.586;2022-09-03T12:23:47;96894.50;;;27.95;44.69
30873;BME280;17579;42.690;2.586;2022-09-03T12:26:25;96886.13;;;28.02;44.78
30873;BME280;17579;42.690;2.586;2022-09-03T12:28:56;96885.91;;;28.19;44.52
30873;BME280;17579;42.690;2.586;2022-09-03T12:31:26;96886.78;;;28.35;43.95
30873;BME280;17579;42.690;2.586;2022-09-03T12:34:15;96882.16;;;28.41;44.00
30873;BME280;17579;42.690;2.586;2022-09-03T12:36:46;96890.06;;;28.58;43.55
30873;BME280;17579;42.690;2.586;2022-09-03T12:39:30;96886.25;;;28.54;43.86
30873;BME280;17579;42.690;2.586;2022-09-03T12:42:04;96889.81;;;28.64;43.81
30873;BME280;17579;42.690;2.586;2022-09-03T12:44:39;96884.38;;;28.75;43.20
30873;BME280;17579;42.690;2.586;2022-09-03T12:47:11;96892.53;;;28.75;43.17
30873;BME280;17579;42.690;2.586;2022-09-03T12:49:42;96897.47;;;28.83;43.27
30873;BME280;17579;42.690;2.586;2022-09-03T12:55:06;96879.22;;;29.04;43.04
30873;BME280;17579;42.690;2.586;2022-09-03T12:57:45;96882.47;;;29.21;42.62
30873;BME280;17579;42.690;2.586;2022-09-03T13:00:16;96879.75;;;29.21;41.75
30873;BME280;17579;42.690;2.586;2022-09-03T13:03:06;96881.69;;;29.11;42.33
30873;BME280;17579;42.690;2.586;2022-09-03T13:05:36;96884.94;;;29.02;41.77
30873;BME280;17579;42.690;2.586;2022-09-03T13:08:07;96889.31;;;29.03;42.11
30873;BME280;17579;42.690;2.586;2022-09-03T13:10:43;96881.13;;;29.09;42.07
30873;BME280;17579;42.690;2.586;2022-09-03T13:13:25;96877.03;;;29.11;43.09
30873;BME280;17579;42.690;2.586;2022-09-03T13:16:23;96867.22;;;29.15;42.47
30873;BME280;17579;42.690;2.586;2022-09-03T13:25:08;96874.06;;;29.02;43.52
30873;BME280;17579;42.690;2.586;2022-09-03T13:28:10;96871.03;;;29.14;43.22
30873;BME280;17579;42.690;2.586;2022-09-03T13:30:56;96876.44;;;29.55;42.38
30873;BME280;17579;42.690;2.586;2022-09-03T13:33:32;96873.38;;;29.83;42.34
30873;BME280;17579;42.690;2.586;2022-09-03T13:36:18;96879.94;;;30.32;41.46
30873;BME280;17579;42.690;2.586;2022-09-03T13:38:52;96869.59;;;30.73;40.99
30873;BME280;17579;42.690;2.586;2022-09-03T13:41:36;96861.03;;;31.20;39.96
30873;BME280;17579;42.690;2.586;2022-09-03T13:44:10;96869.59;;;31.08;39.50
30873;BME280;17579;42.690;2.586;2022-09-03T13:46:51;96868.94;;;30.87;39.98
30873;BME280;17579;42.690;2.586;2022-09-03T13:55:22;96867.63;;;29.79;41.91
30873;BME280;17579;42.690;2.586;2022-09-03T13:57:55;96856.59;;;29.40;42.16
30873;BME280;17579;42.690;2.586;2022-09-03T14:00:45;96859.88;;;29.00;43.06
30873;BME280;17579;42.690;2.586;2022-09-03T14:03:32;96863.19;;;28.77;43.46
30873;BME280;17579;42.690;2.586;2022-09-03T14:06:08;96852.81;;;29.10;43.66
30873;BME280;17579;42.690;2.586;2022-09-03T14:08:58;96850.91;;;29.15;43.68
30873;BME280;17579;42.690;2.586;2022-09-03T14:11:34;96850.91;;;29.05;43.64
30873;BME280;17579;42.690;2.586;2022-09-03T14:16:52;96850.34;;;28.57;44.28
30873;BME280;17579;42.690;2.586;2022-09-03T14:19:34;96849.75;;;28.13;44.84
30873;BME280;17579;42.690;2.586;2022-09-03T14:22:10;96845.09;;;28.04;45.68
30873;BME280;17579;42.690;2.586;2022-09-03T14:25:08;96843.38;;;27.92;45.23
30873;BME280;17579;42.690;2.586;2022-09-03T14:27:35;96844.69;;;27.79;46.16
30873;BME280;17579;42.690;2.586;2022-09-03T14:35:46;96839.59;;;27.35;46.50
30873;BME280;17579;42.690;2.586;2022-09-03T14:38:38;96844.16;;;27.24;46.94
30873;BME280;17579;42.690;2.586;2022-09-03T14:44:36;96838.22;;;26.90;47.90
30873;BME280;17579;42.690;2.586;2022-09-03T14:47:27;96832.75;;;26.85;48.03
30873;BME280;17579;42.690;2.586;2022-09-03T14:50:04;96832.19;;;26.83;48.50
30873;BME280;17579;42.690;2.586;2022-09-03T15:01:31;96827.78;;;26.71;49.22
30873;BME280;17579;42.690;2.586;2022-09-03T15:07:12;96827.44;;;26.68;49.22
30873;BME280;17579;42.690;2.586;2022-09-03T15:10:06;96835.00;;;26.66;49.32
30873;BME280;17579;42.690;2.586;2022-09-03T15:12:44;96830.13;;;26.62;49.66
30873;BME280;17579;42.690;2.586;2022-09-03T15:21:17;96820.47;;;26.44;50.14
30873;BME280;17579;42.690;2.586;2022-09-03T15:38:47;96806.25;;;26.65;49.10
30873;BME280;17579;42.690;2.586;2022-09-03T15:44:15;96801.53;;;26.50;49.20
30873;BME280;17579;42.690;2.586;2022-09-03T15:46:58;96812.81;;;26.36;49.73
30873;BME280;17579;42.690;2.586;2022-09-03T15:49:52;96815.47;;;26.31;49.57
30873;BME280;17579;42.690;2.586;2022-09-03T15:52:30;96818.47;;;26.35;49.69
30873;BME280;17579;42.690;2.586;2022-09-03T16:00:59;96828.31;;;26.41;50.19
30873;BME280;17579;42.690;2.586;2022-09-03T16:06:27;96831.03;;;26.46;49.88
30873;BME280;17579;42.690;2.586;2022-09-03T16:09:26;96828.06;;;26.48;49.70
30873;BME280;17579;42.690;2.586;2022-09-03T16:12:09;96822.88;;;26.41;49.88
30873;BME280;17579;42.690;2.586;2022-09-03T16:14:56;96821.59;;;26.49;50.30
30873;BME280;17579;42.690;2.586;2022-09-03T16:17:54;96825.06;;;26.44;49.98
30873;BME280;17579;42.690;2.586;2022-09-03T16:20:31;96826.13;;;26.38;50.52
30873;BME280;17579;42.690;2.586;2022-09-03T16:29:00;96854.72;;;26.23;51.39
30873;BME280;17579;42.690;2.586;2022-09-03T16:31:55;96859.75;;;26.15;51.79